Terminal Aerodrome Forecast
Issued by NWS Sterling, VA

Current Version | Previous Version | Graphics & Text | Print | Product List | Glossary On
Versions: 1 2 3 4 5 6 7 8 9 10 11 12 13 14 15 16 17 18 19 20 21 22 23 24 25 26
000
FTUS41 KLWX 221500 AAC
TAFIAD
TAF AMD
KIAD 221524Z 2215/2318 VRB03KT P6SM SCT002 BKN040
     FM221700 31010G15KT P6SM BKN250
     FM230000 30004KT P6SM FEW250=

USA.gov is the U.S. government's official web portal to all federal, state and local government web resources and services.